Time;durP1;ratioP1;P1;durP2;ratioP2;P2;SDS_P1;SDS_P2;PMS_P1;PMS_P2;Temp;Humidity;BMP_temperature;BMP_pressure;BME280_temperature;BME280_humidity;BME280_pressure;Samples;Min_cycle;Max_cycle;Signal;HPM_P1;HPM_P2
2021/11/13 00:01:11;;;;;;;73.80;33.83;;;;;;;2.70;100.00;100968.13;5109420;28;20069;-68
2021/11/13 00:03:37;;;;;;;74.40;34.55;;;;;;;2.80;100.00;100982.66;5109284;28;20032;-68
2021/11/13 00:06:02;;;;;;;84.15;35.42;;;;;;;2.72;100.00;100978.66;5110985;28;20024;-69
2021/11/13 00:08:28;;;;;;;96.97;36.78;;;;;;;2.71;100.00;100979.59;5110974;28;20030;-68
2021/11/13 00:10:53;;;;;;;75.20;33.80;;;;;;;2.78;100.00;100988.97;5111059;28;20555;-68
2021/11/13 00:13:21;;;;;;;64.78;33.28;;;;;;;2.80;100.00;100973.88;5110554;28;20071;-68
2021/11/13 00:15:47;;;;;;;84.82;34.30;;;;;;;2.80;100.00;100979.19;5110907;28;20063;-68
2021/11/13 00:18:13;;;;;;;88.82;34.35;;;;;;;2.78;100.00;100983.69;5109583;28;20479;-68
2021/11/13 00:20:38;;;;;;;75.70;35.55;;;;;;;2.68;100.00;100982.38;5108907;28;20084;-68
2021/11/13 00:23:04;;;;;;;88.15;33.13;;;;;;;2.77;100.00;100993.41;5110295;28;20055;-67
2021/11/13 00:25:32;;;;;;;81.53;31.13;;;;;;;2.77;100.00;100987.25;5108822;28;20112;-68
2021/11/13 00:27:58;;;;;;;76.80;31.88;;;;;;;2.75;100.00;100979.38;5110512;28;20035;-67
2021/11/13 00:30:24;;;;;;;69.95;30.27;;;;;;;2.78;100.00;100987.19;5111038;28;20019;-67
2021/11/13 00:32:49;;;;;;;82.75;30.73;;;;;;;2.76;100.00;100985.53;5110929;28;20035;-67
2021/11/13 00:35:15;;;;;;;89.50;31.45;;;;;;;2.78;100.00;100988.97;5110883;28;20107;-68
2021/11/13 00:37:41;;;;;;;88.93;30.33;;;;;;;2.67;100.00;100970.06;5109534;28;20605;-68
2021/11/13 00:40:09;;;;;;;68.90;28.75;;;;;;;2.78;100.00;100986.31;5111079;28;20027;-68
2021/11/13 00:42:35;;;;;;;85.47;28.23;;;;;;;2.71;100.00;100972.47;5110870;28;20661;-67
2021/11/13 00:45:01;;;;;;;87.30;30.27;;;;;;;2.70;100.00;100975.22;5110563;28;20384;-68
2021/11/13 00:47:26;;;;;;;66.07;28.50;;;;;;;2.64;100.00;100973.69;5110589;28;20036;-68
2021/11/13 00:49:51;;;;;;;72.53;30.35;;;;;;;2.68;100.00;100974.44;5110577;28;20039;-68
2021/11/13 00:52:17;;;;;;;70.28;30.90;;;;;;;2.70;100.00;100967.28;5109718;28;20032;-67
2021/11/13 00:54:43;;;;;;;71.38;30.35;;;;;;;2.63;100.00;100958.75;5109812;28;20027;-67
2021/11/13 00:57:08;;;;;;;68.20;30.50;;;;;;;2.73;100.00;100967.13;5110105;28;20038;-67
2021/11/13 00:59:35;;;;;;;60.65;27.73;;;;;;;2.78;100.00;100976.59;5110284;28;20032;-68
2021/11/13 01:02:01;;;;;;;74.90;31.42;;;;;;;2.70;100.00;100948.75;5109994;28;20023;-67
2021/11/13 01:04:27;;;;;;;93.18;30.42;;;;;;;2.76;100.00;100965.19;5108721;28;20067;-68
2021/11/13 01:06:52;;;;;;;87.07;29.17;;;;;;;2.77;100.00;100960.78;5110153;28;20031;-67
2021/11/13 01:09:18;;;;;;;85.07;30.48;;;;;;;2.74;100.00;100959.09;5108322;28;20084;-68
2021/11/13 01:11:43;;;;;;;65.05;30.23;;;;;;;2.75;100.00;100968.78;5109754;28;20035;-67
2021/11/13 01:14:09;;;;;;;78.72;32.85;;;;;;;2.69;100.00;100963.78;5109230;28;20490;-67
2021/11/13 01:16:35;;;;;;;78.10;30.17;;;;;;;2.71;100.00;100963.69;5109330;28;20027;-67
2021/11/13 01:19:01;;;;;;;85.47;31.52;;;;;;;2.72;100.00;100966.28;5109008;28;20535;-67
2021/11/13 01:21:26;;;;;;;81.53;29.83;;;;;;;2.76;100.00;100967.84;5108072;28;20019;-67
2021/11/13 01:23:52;;;;;;;71.45;30.80;;;;;;;2.78;100.00;100970.44;5110273;28;20062;-68
2021/11/13 01:26:17;;;;;;;71.47;31.23;;;;;;;2.72;100.00;100954.81;5109328;28;20147;-68
2021/11/13 01:28:43;;;;;;;91.22;30.02;;;;;;;2.79;100.00;100972.13;5109641;28;20032;-69
2021/11/13 01:31:09;;;;;;;77.68;29.35;;;;;;;2.78;100.00;100966.00;5108721;28;20027;-68
2021/11/13 01:33:35;;;;;;;82.07;31.20;;;;;;;2.72;100.00;100950.38;5107525;28;20016;-68
2021/11/13 01:36:03;;;;;;;83.82;32.35;;;;;;;2.66;100.00;100931.25;5107333;28;20038;-68
2021/11/13 01:38:30;;;;;;;77.50;33.47;;;;;;;2.76;100.00;100944.03;5107028;28;20038;-68
2021/11/13 01:40:55;;;;;;;71.70;30.63;;;;;;;2.76;100.00;100940.50;5108907;28;20395;-68
2021/11/13 01:43:21;;;;;;;72.00;29.77;;;;;;;2.79;100.00;100937.72;5108737;28;20015;-68
2021/11/13 01:45:47;;;;;;;65.53;28.33;;;;;;;2.83;100.00;100936.66;5109363;28;20051;-68
2021/11/13 01:48:12;;;;;;;66.50;29.95;;;;;;;2.79;100.00;100929.75;5110009;28;20035;-68
2021/11/13 01:50:45;;;;;;;65.20;28.45;;;;;;;2.78;100.00;100926.28;5110335;28;20042;-68
2021/11/13 01:53:11;;;;;;;66.53;29.35;;;;;;;2.86;100.00;100929.41;5110031;28;20055;-68
2021/11/13 01:55:38;;;;;;;71.88;29.50;;;;;;;2.80;100.00;100918.25;5110185;28;20090;-68
2021/11/13 01:58:05;;;;;;;69.63;29.85;;;;;;;2.90;100.00;100933.63;5110060;28;20415;-67
2021/11/13 02:00:36;;;;;;;69.45;29.63;;;;;;;2.85;100.00;100925.06;5109564;28;20463;-67
2021/11/13 02:03:02;;;;;;;65.75;29.80;;;;;;;2.87;100.00;100928.47;5107677;28;20031;-67
2021/11/13 02:05:28;;;;;;;67.22;28.35;;;;;;;2.93;100.00;100932.66;5109126;28;20108;-67
2021/11/13 02:07:54;;;;;;;71.68;31.00;;;;;;;2.82;100.00;100919.03;5109783;28;20539;-67
2021/11/13 02:10:20;;;;;;;74.18;29.17;;;;;;;2.96;100.00;100946.59;5109658;28;20131;-67
2021/11/13 02:12:46;;;;;;;74.75;31.52;;;;;;;2.81;100.00;100915.53;5109614;28;20051;-67
2021/11/13 02:15:13;;;;;;;73.15;30.73;;;;;;;2.92;100.00;100936.22;5109527;28;20054;-68
2021/11/13 02:17:39;;;;;;;71.90;29.92;;;;;;;2.81;100.00;100919.97;5109562;28;20438;-68
2021/11/13 02:20:28;;;;;;;70.20;30.88;;;;;;;2.88;100.00;100927.56;5109432;28;20039;-68
2021/11/13 02:22:56;;;;;;;64.88;29.27;;;;;;;2.85;100.00;100910.94;5109509;28;20039;-68
2021/11/13 02:25:25;;;;;;;66.10;29.00;;;;;;;2.86;100.00;100920.59;5109275;28;20537;-68
2021/11/13 02:27:50;;;;;;;76.88;31.35;;;;;;;2.90;100.00;100925.69;5109477;28;20390;-68
2021/11/13 02:30:16;;;;;;;63.10;29.13;;;;;;;2.89;100.00;100918.69;5109503;28;20031;-68
2021/11/13 02:32:42;;;;;;;66.10;31.00;;;;;;;2.90;100.00;100919.56;5111516;28;20521;-66
2021/11/13 02:35:11;;;;;;;70.90;30.88;;;;;;;2.89;100.00;100923.09;5114775;28;20060;-68
2021/11/13 02:37:37;;;;;;;73.22;29.92;;;;;;;2.93;100.00;100925.53;5109593;28;20426;-68
2021/11/13 02:40:06;;;;;;;64.88;30.10;;;;;;;2.85;100.00;100908.28;5109240;28;20035;-68
2021/11/13 02:42:33;;;;;;;69.03;30.30;;;;;;;2.95;100.00;100925.47;5109265;28;20471;-68
2021/11/13 02:44:59;;;;;;;69.70;30.20;;;;;;;2.92;100.00;100913.25;5109534;28;20020;-68
2021/11/13 02:47:26;;;;;;;68.85;30.73;;;;;;;2.98;100.00;100910.31;5109107;28;20038;-67
2021/11/13 02:49:53;;;;;;;71.72;31.90;;;;;;;3.02;100.00;100914.53;5111304;28;20586;-68
2021/11/13 02:52:19;;;;;;;69.47;29.42;;;;;;;3.02;100.00;100913.66;5109201;28;20042;-68
2021/11/13 02:54:47;;;;;;;73.78;33.03;;;;;;;3.04;100.00;100906.50;5112623;28;20040;-68
2021/11/13 02:57:13;;;;;;;72.53;31.25;;;;;;;3.04;100.00;100901.19;5113127;28;20027;-68
2021/11/13 02:59:47;;;;;;;76.18;32.15;;;;;;;3.04;100.00;100888.81;5111964;28;20554;-68
2021/11/13 03:02:12;;;;;;;85.07;35.10;;;;;;;3.12;100.00;100897.25;5113001;28;20704;-68
2021/11/13 03:04:38;;;;;;;75.97;34.60;;;;;;;3.17;100.00;100907.63;5113085;28;20122;-68
2021/11/13 03:07:06;;;;;;;74.63;33.60;;;;;;;3.22;100.00;100905.63;5112049;28;20027;-68
2021/11/13 03:09:32;;;;;;;76.25;32.90;;;;;;;3.23;100.00;100894.09;5110961;28;20051;-67
2021/11/13 03:11:57;;;;;;;74.10;32.83;;;;;;;3.27;100.00;100896.50;5112173;28;20058;-68
2021/11/13 03:14:23;;;;;;;65.20;30.35;;;;;;;3.34;100.00;100900.56;5111710;28;20047;-68
2021/11/13 03:16:49;;;;;;;66.22;30.42;;;;;;;3.44;100.00;100907.16;5110441;28;20039;-68
2021/11/13 03:19:14;;;;;;;64.70;30.17;;;;;;;3.47;100.00;100904.34;5112346;28;20062;-67
2021/11/13 03:21:41;;;;;;;65.93;31.00;;;;;;;3.42;100.00;100895.75;5112949;28;20055;-67
2021/11/13 03:24:06;;;;;;;69.22;32.67;;;;;;;3.44;100.00;100893.88;5111329;28;20087;-66
2021/11/13 03:26:32;;;;;;;66.50;32.67;;;;;;;3.47;100.00;100906.13;5112875;28;20043;-67
2021/11/13 03:29:04;;;;;;;62.45;29.20;;;;;;;3.57;100.00;100920.63;5111855;28;20073;-67
2021/11/13 03:31:29;;;;;;;62.92;29.20;;;;;;;3.55;100.00;100910.09;5111481;28;20084;-68
2021/11/13 03:33:56;;;;;;;63.22;29.45;;;;;;;3.63;100.00;100920.34;5112571;28;20031;-68
2021/11/13 03:36:22;;;;;;;62.55;29.90;;;;;;;3.51;100.00;100886.50;5110279;28;20102;-68
2021/11/13 03:38:50;;;;;;;59.13;28.60;;;;;;;3.64;100.00;100890.25;5112305;28;20049;-68
2021/11/13 03:41:17;;;;;;;60.08;28.00;;;;;;;3.69;100.00;100907.66;5110671;28;20391;-68
2021/11/13 03:43:42;;;;;;;56.05;27.05;;;;;;;3.70;100.00;100900.53;5111457;28;20055;-68
2021/11/13 03:46:08;;;;;;;57.70;28.52;;;;;;;3.72;100.00;100910.16;5110591;28;20523;-67
2021/11/13 03:48:34;;;;;;;61.92;28.75;;;;;;;3.76;100.00;100917.00;5111266;28;20090;-68
2021/11/13 03:51:01;;;;;;;61.80;27.88;;;;;;;3.68;100.00;100908.56;5111440;28;20036;-69
2021/11/13 03:53:27;;;;;;;59.17;28.98;;;;;;;3.71;100.00;100899.63;5111189;28;20039;-69
2021/11/13 03:55:52;;;;;;;59.10;29.80;;;;;;;3.78;100.00;100906.31;5109929;28;20085;-68
2021/11/13 03:58:18;;;;;;;58.38;30.58;;;;;;;3.77;100.00;100901.97;5110650;28;20023;-68
2021/11/13 04:00:44;;;;;;;58.05;28.88;;;;;;;3.80;100.00;100897.34;5110809;28;20023;-68
2021/11/13 04:03:09;;;;;;;66.65;30.60;;;;;;;3.74;100.00;100887.03;5110885;28;20020;-68
2021/11/13 04:05:35;;;;;;;65.53;31.35;;;;;;;3.81;100.00;100895.56;5109658;28;20035;-68
2021/11/13 04:08:03;;;;;;;59.63;30.33;;;;;;;3.80;100.00;100883.19;5110737;28;20032;-68
2021/11/13 04:10:28;;;;;;;59.90;30.77;;;;;;;3.82;100.00;100892.81;5111779;28;20027;-68
2021/11/13 04:12:54;;;;;;;63.67;31.30;;;;;;;3.87;100.00;100889.94;5111807;28;20027;-69
2021/11/13 04:15:19;;;;;;;67.97;31.48;;;;;;;3.90;100.00;100895.09;5112991;28;20031;-68
2021/11/13 04:17:46;;;;;;;67.93;33.22;;;;;;;3.94;100.00;100908.09;5111495;28;20035;-69
2021/11/13 04:20:12;;;;;;;61.85;31.77;;;;;;;3.83;100.00;100885.69;5111253;28;20072;-68
2021/11/13 04:22:39;;;;;;;66.72;32.55;;;;;;;3.96;100.00;100894.75;5111502;28;20114;-68
2021/11/13 04:25:05;;;;;;;67.38;33.95;;;;;;;3.98;100.00;100892.88;5111957;28;20487;-67
2021/11/13 04:27:31;;;;;;;72.38;36.13;;;;;;;3.95;100.00;100880.63;5111850;28;20035;-68
2021/11/13 04:29:56;;;;;;;76.13;35.60;;;;;;;3.99;100.00;100883.97;5112132;28;20058;-67
2021/11/13 04:32:22;;;;;;;79.53;38.63;;;;;;;4.02;100.00;100889.13;5107860;28;20111;-67
2021/11/13 04:37:16;;;;;;;78.18;35.63;;;;;;;3.93;100.00;100863.06;5111973;27;20050;-68
2021/11/13 04:39:43;;;;;;;72.50;34.38;;;;;;;4.09;100.00;100886.06;5111882;28;20023;-68
2021/11/13 04:42:09;;;;;;;70.22;33.25;;;;;;;4.16;100.00;100891.94;5111530;28;20035;-68
2021/11/13 04:44:35;;;;;;;68.05;33.08;;;;;;;4.13;100.00;100877.00;5112581;28;20388;-68
2021/11/13 04:47:01;;;;;;;67.80;33.55;;;;;;;4.19;100.00;100886.44;5110876;28;20038;-68
2021/11/13 04:49:27;;;;;;;63.17;32.08;;;;;;;4.11;100.00;100860.31;5110264;28;20024;-68
2021/11/13 04:51:52;;;;;;;69.18;34.28;;;;;;;4.25;100.00;100873.72;5110767;28;20035;-68
2021/11/13 04:54:18;;;;;;;69.40;33.83;;;;;;;4.23;100.00;100867.63;5110544;28;20036;-69
2021/11/13 04:56:43;;;;;;;73.90;36.28;;;;;;;4.20;100.00;100861.63;5109793;28;20035;-68
2021/11/13 04:59:09;;;;;;;71.00;34.22;;;;;;;4.20;100.00;100851.84;5112911;27;20035;-69
2021/11/13 05:01:34;;;;;;;70.45;35.80;;;;;;;4.32;100.00;100876.91;5111703;27;20035;-68
2021/11/13 05:04:00;;;;;;;73.93;34.58;;;;;;;4.27;100.00;100863.88;5114023;27;20034;-68
2021/11/13 05:06:28;;;;;;;67.38;35.05;;;;;;;4.35;100.00;100869.63;5114330;27;20038;-69
2021/11/13 05:08:56;;;;;;;65.95;34.17;;;;;;;4.35;100.00;100869.63;5113796;27;20035;-69
2021/11/13 05:11:22;;;;;;;70.30;34.03;;;;;;;4.35;100.00;100863.44;5109315;28;20035;-69
2021/11/13 05:13:47;;;;;;;65.32;33.22;;;;;;;4.40;100.00;100866.72;5110344;28;20031;-68
2021/11/13 05:16:12;;;;;;;67.57;34.38;;;;;;;4.31;100.00;100851.28;5110351;28;20023;-69
2021/11/13 05:18:38;;;;;;;71.55;34.80;;;;;;;4.44;100.00;100866.50;5110269;28;20027;-69
2021/11/13 05:21:03;;;;;;;68.20;33.83;;;;;;;4.43;100.00;100861.25;5109591;28;20113;-68
2021/11/13 05:23:29;;;;;;;68.40;33.00;;;;;;;4.41;100.00;100855.16;5109706;28;20019;-67
2021/11/13 05:25:55;;;;;;;68.95;35.17;;;;;;;4.45;100.00;100851.41;5109365;28;20075;-68
2021/11/13 05:28:20;;;;;;;63.55;34.13;;;;;;;4.49;100.00;100858.28;5106252;28;20443;-68
2021/11/13 05:30:46;;;;;;;69.15;37.13;;;;;;;4.52;100.00;100853.63;5109781;28;20034;-68
2021/11/13 05:33:11;;;;;;;71.68;35.20;;;;;;;4.45;100.00;100846.94;5108962;28;20023;-68
2021/11/13 05:35:37;;;;;;;67.03;35.80;;;;;;;4.55;100.00;100864.09;5110232;28;20161;-67
2021/11/13 05:38:04;;;;;;;68.30;34.70;;;;;;;4.55;100.00;100861.44;5109713;28;20496;-69
2021/11/13 05:40:29;;;;;;;74.03;36.38;;;;;;;4.60;100.00;100861.19;5108456;28;20024;-68
2021/11/13 05:42:55;;;;;;;68.95;37.65;;;;;;;4.56;100.00;100855.22;5109869;28;20036;-67
2021/11/13 05:45:21;;;;;;;69.82;35.83;;;;;;;4.30;100.00;100809.75;5109823;28;20050;-68
2021/11/13 05:47:46;;;;;;;75.70;36.67;;;;;;;4.53;100.00;100854.50;5109962;28;20050;-68
2021/11/13 05:50:15;;;;;;;68.57;36.30;;;;;;;4.68;100.00;100881.06;5110235;28;20207;-67
2021/11/13 05:52:41;;;;;;;77.40;37.50;;;;;;;4.69;100.00;100872.19;5123193;28;20380;-68
2021/11/13 05:55:09;;;;;;;75.22;38.35;;;;;;;4.66;100.00;100864.38;5127344;28;20399;-68
2021/11/13 05:57:35;;;;;;;72.22;37.88;;;;;;;4.66;100.00;100867.03;5110986;28;20099;-69
2021/11/13 06:00:01;;;;;;;76.70;38.88;;;;;;;4.77;100.00;100884.19;5108708;28;20031;-69
2021/11/13 06:02:26;;;;;;;79.22;37.88;;;;;;;4.76;100.00;100883.31;5109944;28;20020;-70
2021/11/13 06:04:52;;;;;;;80.45;39.38;;;;;;;4.74;100.00;100879.88;5108794;28;20031;-69
2021/11/13 06:07:18;;;;;;;73.65;37.80;;;;;;;4.74;100.00;100879.88;5109957;28;20035;-69
2021/11/13 06:09:43;;;;;;;78.03;38.40;;;;;;;4.78;100.00;100884.94;5109732;28;20043;-69
2021/11/13 06:12:09;;;;;;;77.20;38.90;;;;;;;4.85;100.00;100903.19;5110037;28;20054;-69
2021/11/13 06:14:35;;;;;;;77.57;40.00;;;;;;;4.85;100.00;100896.09;5108620;28;20019;-69
2021/11/13 06:17:00;;;;;;;81.22;40.38;;;;;;;4.92;100.00;100905.44;5109929;28;20016;-70
2021/11/13 06:19:26;;;;;;;75.68;38.50;;;;;;;4.93;100.00;100901.00;5109721;28;20020;-70
2021/11/13 06:21:51;;;;;;;84.10;41.97;;;;;;;4.94;100.00;100903.56;5109965;28;20110;-68
2021/11/13 06:24:17;;;;;;;78.07;39.85;;;;;;;4.98;100.00;100914.88;5111349;28;20074;-68
2021/11/13 06:26:42;;;;;;;81.72;40.63;;;;;;;4.95;100.00;100897.31;5113263;28;20529;-68
2021/11/13 06:29:08;;;;;;;82.65;42.13;;;;;;;5.06;100.00;100912.66;5113630;28;20099;-68
2021/11/13 06:31:33;;;;;;;80.47;40.63;;;;;;;5.05;100.00;100911.78;5113521;28;20035;-68
2021/11/13 06:33:59;;;;;;;81.72;41.85;;;;;;;5.06;100.00;100916.16;5113336;28;20011;-68
2021/11/13 06:36:25;;;;;;;82.68;41.30;;;;;;;5.04;100.00;100917.19;5113289;28;20031;-68
2021/11/13 06:38:50;;;;;;;87.10;41.15;;;;;;;5.07;100.00;100919.69;5113088;28;20028;-68
2021/11/13 06:41:16;;;;;;;84.53;43.42;;;;;;;5.12;100.00;100930.94;5112564;28;20024;-68
2021/11/13 06:43:41;;;;;;;89.30;42.00;;;;;;;5.10;100.00;100933.69;5111838;28;20039;-69
2021/11/13 06:46:06;;;;;;;90.47;44.15;;;;;;;5.06;100.00;100931.28;5113496;28;20031;-70
2021/11/13 06:48:32;;;;;;;84.70;42.30;;;;;;;5.06;100.00;100926.78;5113610;28;20206;-68
2021/11/13 06:50:57;;;;;;;89.82;44.30;;;;;;;5.10;100.00;100936.34;5113491;27;20110;-70
2021/11/13 06:53:23;;;;;;;92.13;42.40;;;;;;;5.22;100.00;100948.94;5113043;28;20081;-70
2021/11/13 06:55:49;;;;;;;94.20;43.25;;;;;;;5.22;100.00;100942.78;5113251;28;20081;-70
2021/11/13 06:58:15;;;;;;;88.95;42.60;;;;;;;5.19;100.00;100930.47;5112976;28;20464;-70
2021/11/13 07:00:41;;;;;;;91.90;42.67;;;;;;;5.29;100.00;100941.47;5111283;28;20019;-69
2021/11/13 07:03:06;;;;;;;85.10;42.35;;;;;;;5.28;100.00;100935.28;5112913;27;20032;-69
2021/11/13 07:05:33;;;;;;;92.78;42.70;;;;;;;5.24;100.00;100923.13;5111269;28;20024;-70
2021/11/13 07:07:58;;;;;;;96.38;43.92;;;;;;;5.34;100.00;100940.25;5111613;28;20514;-71
2021/11/13 07:10:25;;;;;;;89.28;43.47;;;;;;;5.37;100.00;100934.78;5113146;28;20028;-71
2021/11/13 07:12:51;;;;;;;85.65;41.08;;;;;;;5.31;100.00;100927.13;5111682;28;20038;-71
2021/11/13 07:15:18;;;;;;;89.95;41.17;;;;;;;5.39;100.00;100926.72;5110868;28;20370;-71
2021/11/13 07:17:44;;;;;;;90.75;42.72;;;;;;;5.30;100.00;100909.47;5112751;28;20038;-71
2021/11/13 07:20:11;;;;;;;93.05;43.85;;;;;;;5.40;100.00;100929.28;5113092;28;20027;-71
2021/11/13 07:22:39;;;;;;;97.18;42.90;;;;;;;5.44;100.00;100932.59;5112092;28;20040;-71
2021/11/13 07:25:12;;;;;;;89.82;42.17;;;;;;;5.44;100.00;100920.19;5112654;28;20031;-67
2021/11/13 07:27:38;;;;;;;86.63;37.85;;;;;;;5.37;100.00;100918.81;5112406;28;20035;-68
2021/11/13 07:30:04;;;;;;;97.53;43.03;;;;;;;5.48;100.00;100927.03;5111952;28;20349;-68
2021/11/13 07:32:30;;;;;;;97.43;42.78;;;;;;;5.51;100.00;100941.97;5112275;28;20525;-69
2021/11/13 07:34:56;;;;;;;93.47;42.85;;;;;;;5.37;100.00;100910.84;5109596;28;20020;-69
2021/11/13 07:37:24;;;;;;;86.13;40.42;;;;;;;5.49;100.00;100925.25;5110746;28;20039;-68
2021/11/13 07:39:50;;;;;;;81.57;40.58;;;;;;;5.48;100.00;100931.50;5112792;28;20032;-68
2021/11/13 07:42:15;;;;;;;84.78;38.80;;;;;;;5.57;100.00;100930.97;5111404;28;20024;-69
2021/11/13 07:44:41;;;;;;;97.15;41.33;;;;;;;5.58;100.00;100927.38;5112467;28;20019;-67
2021/11/13 07:47:06;;;;;;;88.78;41.75;;;;;;;5.59;100.00;100927.28;5107520;28;20414;-67
2021/11/13 07:49:32;;;;;;;79.97;37.30;;;;;;;5.54;100.00;100932.00;5111462;28;20024;-68
2021/11/13 07:51:57;;;;;;;83.78;38.50;;;;;;;5.60;100.00;100929.00;5101445;28;20027;-68
2021/11/13 07:54:22;;;;;;;81.60;37.65;;;;;;;5.58;100.00;100928.22;5109037;28;20041;-66
2021/11/13 07:56:48;;;;;;;81.70;37.55;;;;;;;5.57;100.00;100922.97;5108022;28;20070;-68
2021/11/13 07:59:14;;;;;;;88.47;40.03;;;;;;;5.65;100.00;100934.91;5109240;28;20104;-68
2021/11/13 08:01:41;;;;;;;83.30;39.08;;;;;;;5.62;100.00;100926.25;5108536;28;20027;-69
2021/11/13 08:04:06;;;;;;;94.10;41.53;;;;;;;5.67;100.00;100937.50;5107352;28;20020;-68
2021/11/13 08:06:32;;;;;;;84.60;40.67;;;;;;;5.69;100.00;100944.44;5108135;28;20080;-67
2021/11/13 08:08:57;;;;;;;91.50;40.38;;;;;;;5.57;100.00;100915.88;5110112;28;20031;-67
2021/11/13 08:11:23;;;;;;;84.57;38.45;;;;;;;5.68;100.00;100924.06;5107639;28;20728;-67
2021/11/13 08:13:48;;;;;;;87.78;40.20;;;;;;;5.72;100.00;100925.63;5107211;28;20023;-68
2021/11/13 08:16:14;;;;;;;92.50;42.35;;;;;;;5.73;100.00;100927.34;5109065;28;20031;-68
2021/11/13 08:18:40;;;;;;;86.35;40.53;;;;;;;5.77;100.00;100933.34;5110423;28;20152;-67
2021/11/13 08:21:05;;;;;;;98.90;45.63;;;;;;;5.71;100.00;100929.22;5109146;28;20035;-68
2021/11/13 08:23:31;;;;;;;95.20;43.00;;;;;;;5.68;100.00;100924.06;5110516;28;20729;-68
2021/11/13 08:25:58;;;;;;;103.35;46.95;;;;;;;5.75;100.00;100940.56;5109921;27;20481;-68
2021/11/13 08:28:24;;;;;;;98.25;45.30;;;;;;;5.70;100.00;100913.34;5108368;28;20494;-68
2021/11/13 08:30:50;;;;;;;94.82;42.83;;;;;;;5.77;100.00;100936.00;5110607;28;20023;-68
2021/11/13 08:33:16;;;;;;;94.97;43.08;;;;;;;5.79;100.00;100937.63;5108374;28;20027;-67
2021/11/13 08:35:44;;;;;;;98.18;43.17;;;;;;;5.79;100.00;100926.97;5110619;28;20036;-67
2021/11/13 08:38:16;;;;;;;105.97;44.83;;;;;;;5.84;100.00;100942.72;5109701;28;20028;-69
2021/11/13 08:40:42;;;;;;;98.78;45.25;;;;;;;5.76;100.00;100921.84;5109821;28;20051;-68
2021/11/13 08:43:07;;;;;;;104.10;46.30;;;;;;;5.82;100.00;100926.84;5110086;28;20035;-68
2021/11/13 08:45:34;;;;;;;105.90;44.85;;;;;;;5.86;100.00;100936.34;5108313;28;20091;-68
2021/11/13 08:47:59;;;;;;;104.18;46.53;;;;;;;5.85;100.00;100924.00;5109928;28;20020;-68
2021/11/13 08:50:27;;;;;;;106.80;45.85;;;;;;;5.84;100.00;100932.06;5107909;28;20034;-68
2021/11/13 08:53:04;;;;;;;110.25;47.92;;;;;;;5.91;100.00;100941.41;5108917;28;20484;-68
2021/11/13 08:55:34;;;;;;;109.57;46.75;;;;;;;5.92;100.00;100938.66;5107950;28;20492;-68
2021/11/13 08:58:02;;;;;;;108.13;48.05;;;;;;;5.90;100.00;100939.69;5108239;28;20415;-68
2021/11/13 09:00:38;;;;;;;109.38;46.50;;;;;;;5.77;100.00;100912.91;5106979;28;20460;-68
2021/11/13 09:03:06;;;;;;;105.10;47.42;;;;;;;5.82;100.00;100920.66;5108631;28;20031;-68
2021/11/13 09:05:32;;;;;;;107.55;47.65;;;;;;;5.94;100.00;100949.22;5109569;27;20028;-69
2021/11/13 09:07:59;;;;;;;115.35;51.60;;;;;;;5.94;100.00;100944.72;5110122;28;20544;-68
2021/11/13 09:10:26;;;;;;;114.05;49.75;;;;;;;5.87;100.00;100935.41;5108008;28;20020;-68
2021/11/13 09:12:52;;;;;;;115.68;50.58;;;;;;;5.96;100.00;100940.19;5106926;28;20061;-69
2021/11/13 09:15:24;;;;;;;120.60;53.33;;;;;;;5.93;100.00;100929.72;5108441;28;20042;-67
2021/11/13 09:17:51;;;;;;;122.85;52.05;;;;;;;5.98;100.00;100935.63;5109594;28;20106;-68
2021/11/13 09:20:17;;;;;;;121.30;53.25;;;;;;;5.99;100.00;100923.16;5108090;28;20023;-67
2021/11/13 09:22:42;;;;;;;115.40;52.45;;;;;;;6.05;100.00;100930.78;5108255;28;20086;-67
2021/11/13 09:25:09;;;;;;;110.20;50.35;;;;;;;5.97;100.00;100906.44;5107679;28;20059;-67
2021/11/13 09:27:38;;;;;;;103.60;48.58;;;;;;;6.01;100.00;100908.84;5107042;28;20047;-68
2021/11/13 09:30:10;;;;;;;102.13;48.25;;;;;;;6.02;100.00;100905.22;5109943;28;20116;-68
2021/11/13 09:32:35;;;;;;;111.07;49.90;;;;;;;6.08;100.00;100923.50;5109009;28;20046;-67
2021/11/13 09:35:01;;;;;;;106.18;47.08;;;;;;;6.09;100.00;100917.22;5109633;28;20094;-68
2021/11/13 09:37:27;;;;;;;112.45;49.10;;;;;;;6.06;100.00;100903.25;5107724;28;20032;-68
2021/11/13 09:39:52;;;;;;;126.25;52.83;;;;;;;6.10;100.00;100915.41;5108083;28;20038;-68
2021/11/13 09:42:19;;;;;;;110.63;49.67;;;;;;;6.20;100.00;100925.44;5107293;28;20043;-67
2021/11/13 09:44:44;;;;;;;127.88;54.47;;;;;;;6.18;100.00;100919.31;5109106;28;20035;-67
2021/11/13 09:47:11;;;;;;;123.82;52.78;;;;;;;6.17;100.00;100908.75;5103852;28;20494;-67
2021/11/13 09:49:37;;;;;;;133.60;56.38;;;;;;;6.20;100.00;100922.75;5106607;28;20028;-67
2021/11/13 09:52:03;;;;;;;123.38;55.30;;;;;;;6.14;100.00;100907.16;5106768;28;20042;-67
2021/11/13 09:54:29;;;;;;;123.80;53.75;;;;;;;6.22;100.00;100909.31;5106096;28;20024;-68
2021/11/13 09:56:56;;;;;;;126.97;56.75;;;;;;;6.17;100.00;100900.78;5108029;28;20051;-67
2021/11/13 09:59:22;;;;;;;128.38;55.58;;;;;;;6.25;100.00;100907.34;5112114;28;20391;-67
2021/11/13 10:01:49;;;;;;;132.98;57.53;;;;;;;6.16;100.00;100894.56;5112852;28;20047;-68
2021/11/13 10:04:14;;;;;;;131.77;56.22;;;;;;;6.18;100.00;100894.47;5113086;28;20030;-67
2021/11/13 10:06:40;;;;;;;131.82;58.20;;;;;;;6.21;100.00;100902.28;5111708;28;20046;-68
2021/11/13 10:09:07;;;;;;;127.25;53.55;;;;;;;6.25;100.00;100910.00;5111810;28;20030;-68
2021/11/13 10:11:39;;;;;;;140.80;59.63;;;;;;;6.22;100.00;100899.53;5112935;28;20038;-68
2021/11/13 10:14:04;;;;;;;139.10;57.92;;;;;;;6.17;100.00;100884.78;5113396;28;20081;-68
2021/11/13 10:16:30;;;;;;;132.05;57.60;;;;;;;6.30;100.00;100904.41;5113127;28;20051;-68
2021/11/13 10:18:55;;;;;;;131.32;54.95;;;;;;;6.32;100.00;100902.50;5113497;28;20040;-68
2021/11/13 10:21:29;;;;;;;127.53;55.83;;;;;;;6.27;100.00;100897.47;5112660;28;20027;-69
2021/11/13 10:23:59;;;;;;;125.55;55.20;;;;;;;6.32;100.00;100894.53;5111284;28;20028;-68
2021/11/13 10:26:31;;;;;;;133.00;56.47;;;;;;;6.35;100.00;100891.63;5111191;28;20071;-68
2021/11/13 10:29:30;;;;;;;113.90;51.10;;;;;;;6.34;100.00;100887.28;5112293;28;20031;-68
2021/11/13 10:31:59;;;;;;;124.70;55.30;;;;;;;6.42;100.00;100890.34;5067309;28;20035;-68
2021/11/13 10:34:32;;;;;;;125.53;56.20;;;;;;;6.39;100.00;100875.38;5111247;28;20388;-68
2021/11/13 10:37:01;;;;;;;130.82;57.47;;;;;;;6.33;100.00;100856.28;5113312;28;20023;-68
2021/11/13 10:39:35;;;;;;;127.70;55.30;;;;;;;6.42;100.00;100877.03;5112535;27;20114;-68
2021/11/13 10:42:07;;;;;;;118.82;52.35;;;;;;;6.42;100.00;100863.69;5111538;27;20030;-68
2021/11/13 10:45:02;;;;;;;118.38;54.25;;;;;;;6.55;99.76;100888.63;5108884;28;20176;-69
2021/11/13 10:47:32;;;;;;;141.18;68.25;;;;;;;6.46;100.00;100860.75;5094539;28;20649;-70
2021/11/13 10:50:21;;;;;;;135.43;63.03;;;;;;;6.55;100.00;100878.81;5113292;28;20494;-69
2021/11/13 10:53:12;;;;;;;118.88;54.22;;;;;;;6.57;100.00;100876.06;5110352;28;21586;-68
2021/11/13 10:56:01;;;;;;;120.32;52.78;;;;;;;6.61;99.92;100872.25;5111089;28;20027;-68
2021/11/13 10:58:35;;;;;;;130.75;56.67;;;;;;;6.62;99.00;100869.47;5100183;27;20640;-69
2021/11/13 11:01:08;;;;;;;138.30;60.45;;;;;;;6.58;98.88;100873.28;5109451;28;20039;-68
2021/11/13 11:03:39;;;;;;;134.65;60.05;;;;;;;6.59;99.58;100868.81;5111102;28;20032;-68
2021/11/13 11:06:07;;;;;;;128.35;56.10;;;;;;;6.55;99.81;100856.66;5113022;28;20023;-67
2021/11/13 11:08:35;;;;;;;123.25;55.88;;;;;;;6.59;99.18;100867.03;5112288;28;20043;-68